Time;durP1;ratioP1;P1;durP2;ratioP2;P2;SDS_P1;SDS_P2;PMS_P1;PMS_P2;Temp;Humidity;BMP_temperature;BMP_pressure;BME280_temperature;BME280_humidity;BME280_pressure;Samples;Min_cycle;Max_cycle;Signal;HPM_P1;HPM_P2
2023/07/21 00:00:21;;;;;;;10.00;2.75;;;25.50;61.90;;;;;;4988335;28;20033;-57
2023/07/21 00:02:47;;;;;;;8.05;2.58;;;25.50;61.90;;;;;;4987466;28;20031;-56
2023/07/21 00:05:16;;;;;;;6.30;2.40;;;25.50;62.10;;;;;;4988057;28;20035;-57
2023/07/21 00:07:44;;;;;;;4.68;2.40;;;25.40;62.00;;;;;;4986798;28;20561;-57
2023/07/21 00:10:10;;;;;;;4.55;2.30;;;25.40;62.20;;;;;;4987616;28;20041;-57
2023/07/21 00:12:47;;;;;;;3.47;1.90;;;25.40;62.10;;;;;;4987609;28;20034;-57
2023/07/21 00:15:13;;;;;;;8.27;2.50;;;25.40;62.20;;;;;;4988548;28;20054;-57
2023/07/21 00:17:38;;;;;;;9.68;2.55;;;25.40;62.20;;;;;;4986696;28;20027;-57
2023/07/21 00:20:12;;;;;;;4.80;2.55;;;25.40;62.40;;;;;;4987389;28;20050;-57
2023/07/21 00:22:41;;;;;;;4.55;2.20;;;25.30;62.40;;;;;;4984976;28;20030;-57
2023/07/21 00:25:10;;;;;;;8.45;2.40;;;25.30;62.60;;;;;;4967998;29;20031;-57
2023/07/21 00:27:37;;;;;;;6.13;2.22;;;25.30;62.60;;;;;;4967738;29;20074;-57
2023/07/21 00:30:02;;;;;;;7.30;2.40;;;25.30;62.60;;;;;;4967707;29;20082;-57
2023/07/21 00:32:31;;;;;;;3.60;2.10;;;25.20;62.60;;;;;;4969214;28;20031;-57
2023/07/21 00:34:57;;;;;;;7.15;2.17;;;25.20;62.60;;;;;;4967706;29;20034;-57
2023/07/21 00:37:23;;;;;;;4.47;2.00;;;25.20;62.60;;;;;;4967698;29;20028;-57
2023/07/21 00:39:48;;;;;;;6.47;2.50;;;25.20;62.60;;;;;;4968746;28;20031;-57
2023/07/21 00:42:14;;;;;;;4.53;2.25;;;25.10;62.70;;;;;;4968402;28;20582;-57
2023/07/21 00:44:39;;;;;;;6.65;2.28;;;25.10;62.70;;;;;;4951793;29;20553;-57
2023/07/21 00:47:05;;;;;;;3.00;2.22;;;25.10;62.90;;;;;;4967138;29;20045;-57
2023/07/21 00:49:32;;;;;;;4.18;1.95;;;25.10;62.80;;;;;;4967357;29;20088;-57
2023/07/21 00:51:58;;;;;;;3.63;2.45;;;25.10;62.80;;;;;;4967132;29;20031;-57
2023/07/21 00:54:23;;;;;;;4.28;1.98;;;25.00;62.90;;;;;;4967400;29;20031;-57
2023/07/21 00:56:49;;;;;;;4.25;2.50;;;25.00;62.90;;;;;;4968743;28;20415;-57
2023/07/21 00:59:14;;;;;;;3.97;1.98;;;25.00;63.10;;;;;;4950919;29;20071;-57
2023/07/21 01:01:40;;;;;;;5.05;1.85;;;25.00;63.20;;;;;;4978007;28;20031;-57
2023/07/21 01:04:06;;;;;;;3.85;1.83;;;25.00;63.20;;;;;;4987227;28;20117;-57
2023/07/21 01:06:32;;;;;;;5.40;2.17;;;24.90;63.20;;;;;;4970115;28;20031;-57
2023/07/21 01:08:58;;;;;;;5.30;2.20;;;24.90;63.30;;;;;;4986600;28;20091;-57
2023/07/21 01:11:24;;;;;;;2.47;1.83;;;24.90;63.30;;;;;;4987186;28;20030;-57
2023/07/21 01:13:50;;;;;;;4.75;2.17;;;24.90;63.30;;;;;;4987284;28;20031;-57
2023/07/21 01:16:15;;;;;;;3.70;1.83;;;24.90;63.40;;;;;;4986295;28;20064;-57
2023/07/21 01:18:41;;;;;;;3.10;1.90;;;24.90;63.50;;;;;;4986276;28;20101;-57
2023/07/21 01:21:08;;;;;;;2.15;1.55;;;24.90;63.40;;;;;;4970247;28;20029;-57
2023/07/21 01:23:51;;;;;;;4.03;1.90;;;24.80;63.40;;;;;;4986460;28;20033;-57
2023/07/21 01:26:16;;;;;;;3.45;1.75;;;24.80;63.50;;;;;;4969527;28;20035;-57
2023/07/21 01:28:42;;;;;;;6.57;2.00;;;24.80;63.40;;;;;;4987546;28;20062;-57
2023/07/21 01:31:08;;;;;;;3.15;2.10;;;24.80;64.20;;;;;;4986730;28;20027;-57
2023/07/21 01:33:33;;;;;;;5.88;2.00;;;24.70;63.50;;;;;;4986411;28;20046;-57
2023/07/21 01:35:59;;;;;;;3.17;2.00;;;24.70;63.60;;;;;;4986029;28;20031;-58
2023/07/21 01:38:25;;;;;;;9.25;2.30;;;24.70;63.60;;;;;;4986065;28;20082;-57
2023/07/21 01:40:51;;;;;;;4.85;2.30;;;24.70;63.70;;;;;;4969922;28;20030;-57
2023/07/21 01:43:16;;;;;;;4.28;1.92;;;24.70;63.70;;;;;;4985886;28;20067;-57
2023/07/21 01:45:42;;;;;;;7.50;2.20;;;24.60;63.80;;;;;;4984812;28;20023;-56
2023/07/21 01:48:09;;;;;;;3.30;2.05;;;24.60;63.80;;;;;;4984929;28;20045;-57
2023/07/21 01:50:35;;;;;;;3.17;2.10;;;24.60;63.70;;;;;;4985272;28;20034;-57
2023/07/21 01:53:01;;;;;;;4.47;2.22;;;24.60;63.80;;;;;;4985831;28;20372;-57
2023/07/21 01:55:37;;;;;;;7.32;2.22;;;24.50;63.80;;;;;;4985662;28;20038;-57
2023/07/21 01:58:03;;;;;;;4.57;2.58;;;24.50;63.90;;;;;;4983852;28;20057;-57
2023/07/21 02:00:32;;;;;;;4.35;2.50;;;24.50;63.90;;;;;;4984701;28;20024;-57
2023/07/21 02:02:58;;;;;;;5.30;3.58;;;24.50;63.90;;;;;;4985359;28;20391;-57
2023/07/21 02:05:24;;;;;;;9.60;3.95;;;24.50;63.90;;;;;;4984060;28;20659;-57
2023/07/21 02:07:50;;;;;;;6.90;3.88;;;24.50;63.90;;;;;;4987216;28;20031;-57
2023/07/21 02:10:16;;;;;;;5.45;3.55;;;24.50;64.10;;;;;;4985613;28;20095;-57
2023/07/21 02:12:42;;;;;;;7.15;3.63;;;24.40;64.70;;;;;;4968437;28;20061;-57
2023/07/21 02:15:08;;;;;;;5.30;3.50;;;24.50;64.20;;;;;;4965707;28;20090;-57
2023/07/21 02:17:34;;;;;;;5.07;3.50;;;24.40;64.20;;;;;;4980030;28;20031;-57
2023/07/21 02:20:00;;;;;;;5.10;3.63;;;24.40;64.20;;;;;;4986985;28;20023;-57
2023/07/21 02:22:25;;;;;;;5.07;3.40;;;24.40;64.40;;;;;;4985150;28;20050;-57
2023/07/21 02:24:51;;;;;;;6.15;3.40;;;24.40;64.40;;;;;;4986721;28;20046;-57
2023/07/21 02:27:16;;;;;;;4.22;2.90;;;24.40;64.40;;;;;;4986859;28;20059;-57
2023/07/21 02:29:48;;;;;;;6.97;2.97;;;24.40;64.40;;;;;;4986917;28;20034;-59
2023/07/21 02:32:13;;;;;;;3.88;2.65;;;24.40;64.30;;;;;;4969263;28;20127;-57
2023/07/21 02:34:41;;;;;;;5.70;2.95;;;24.30;64.30;;;;;;4985305;28;20026;-57
2023/07/21 02:37:06;;;;;;;6.90;3.13;;;24.30;64.30;;;;;;4987117;28;20391;-56
2023/07/21 02:39:32;;;;;;;5.05;3.00;;;24.30;64.30;;;;;;4989856;28;20118;-57
2023/07/21 02:41:59;;;;;;;4.25;2.72;;;24.30;64.30;;;;;;4971886;28;20031;-56
2023/07/21 02:44:24;;;;;;;6.03;3.05;;;24.30;64.30;;;;;;4988365;28;20031;-56
2023/07/21 02:46:50;;;;;;;4.00;3.28;;;24.30;64.40;;;;;;4972325;28;20489;-56
2023/07/21 02:49:16;;;;;;;7.72;3.60;;;24.30;64.30;;;;;;4988743;28;20094;-56
2023/07/21 02:51:42;;;;;;;5.38;3.95;;;24.20;64.20;;;;;;4988618;28;20037;-57
2023/07/21 02:54:07;;;;;;;7.10;4.35;;;24.20;64.30;;;;;;4989472;28;20034;-57
2023/07/21 02:56:34;;;;;;;9.10;4.93;;;24.20;64.40;;;;;;4989379;28;20027;-57
2023/07/21 02:59:00;;;;;;;6.70;4.32;;;24.20;64.60;;;;;;4988937;28;20057;-57
2023/07/21 03:01:26;;;;;;;6.97;4.20;;;24.20;64.50;;;;;;4988728;28;20053;-57
2023/07/21 03:03:54;;;;;;;6.25;4.20;;;24.20;64.50;;;;;;4988393;28;20390;-56
2023/07/21 03:06:20;;;;;;;10.98;4.13;;;24.20;64.50;;;;;;4988667;28;20082;-57
2023/07/21 03:08:45;;;;;;;11.07;4.47;;;24.10;64.50;;;;;;4988370;28;20031;-57
2023/07/21 03:11:13;;;;;;;11.93;4.35;;;24.10;64.50;;;;;;4988537;28;20344;-57
2023/07/21 03:13:40;;;;;;;10.90;4.80;;;24.10;64.70;;;;;;4988518;28;20034;-57
2023/07/21 03:16:07;;;;;;;7.75;4.35;;;24.10;64.60;;;;;;4988355;28;20110;-57
2023/07/21 03:18:32;;;;;;;7.05;4.00;;;24.10;64.70;;;;;;4988394;28;20059;-56
2023/07/21 03:20:58;;;;;;;10.82;5.25;;;24.10;64.60;;;;;;4989678;28;20038;-57
2023/07/21 03:23:25;;;;;;;8.45;5.47;;;24.10;64.50;;;;;;4988202;28;20042;-57
2023/07/21 03:25:50;;;;;;;9.63;4.82;;;24.00;64.40;;;;;;4989242;28;20035;-57
2023/07/21 03:28:16;;;;;;;7.78;4.97;;;24.00;64.40;;;;;;4971914;28;20083;-57
2023/07/21 03:30:41;;;;;;;9.25;5.45;;;24.00;64.40;;;;;;4988053;28;20471;-57
2023/07/21 03:33:07;;;;;;;6.65;4.60;;;24.00;64.50;;;;;;4989034;28;20092;-58
2023/07/21 03:35:32;;;;;;;8.77;4.82;;;24.00;64.70;;;;;;4977351;28;20114;-56
2023/07/21 03:37:58;;;;;;;16.10;5.53;;;23.90;64.50;;;;;;4988775;28;20034;-57
2023/07/21 03:40:24;;;;;;;22.88;6.03;;;23.90;64.40;;;;;;4988639;28;20022;-57
2023/07/21 03:42:49;;;;;;;17.50;5.70;;;23.90;64.50;;;;;;4987389;28;20030;-57
2023/07/21 03:45:15;;;;;;;35.25;8.10;;;23.90;64.40;;;;;;4989334;28;20031;-57
2023/07/21 03:47:41;;;;;;;42.25;7.75;;;23.80;64.30;;;;;;4987540;28;20106;-57
2023/07/21 03:50:08;;;;;;;41.30;9.63;;;23.80;64.30;;;;;;4988652;28;20494;-57
2023/07/21 03:52:33;;;;;;;38.33;10.13;;;23.90;64.40;;;;;;4989001;28;20058;-57
2023/07/21 03:54:59;;;;;;;30.00;10.82;;;23.90;64.40;;;;;;4988928;28;20035;-57
2023/07/21 03:57:25;;;;;;;41.47;12.27;;;23.80;64.30;;;;;;4987047;28;20042;-57
2023/07/21 03:59:51;;;;;;;41.15;11.57;;;23.80;64.40;;;;;;4988053;28;20023;-57
2023/07/21 04:02:17;;;;;;;42.97;11.75;;;23.80;64.50;;;;;;5003132;28;20062;-57
2023/07/21 04:04:44;;;;;;;38.22;10.23;;;23.70;64.40;;;;;;4985974;28;20509;-56
2023/07/21 04:07:11;;;;;;;33.33;11.60;;;23.70;64.80;;;;;;4988244;28;20443;-57
2023/07/21 04:09:37;;;;;;;43.55;10.45;;;23.70;65.00;;;;;;4988038;28;20525;-57
2023/07/21 04:12:03;;;;;;;45.97;13.80;;;23.70;65.20;;;;;;5002356;28;20031;-57
2023/07/21 04:14:29;;;;;;;40.65;12.85;;;23.70;65.20;;;;;;4987332;28;20030;-57
2023/07/21 04:16:56;;;;;;;34.92;9.93;;;23.70;65.30;;;;;;4987125;28;20043;-57
2023/07/21 04:19:21;;;;;;;28.40;9.45;;;23.60;65.20;;;;;;4984151;28;20034;-57
2023/07/21 04:21:47;;;;;;;29.38;10.32;;;23.70;65.30;;;;;;4984733;28;20073;-57
2023/07/21 04:24:13;;;;;;;37.67;10.82;;;23.60;65.20;;;;;;4987895;28;20034;-57
2023/07/21 04:26:39;;;;;;;34.38;10.13;;;23.60;65.00;;;;;;4985799;28;20087;-57
2023/07/21 04:29:06;;;;;;;30.40;9.13;;;23.60;65.00;;;;;;4988085;28;20042;-57
2023/07/21 04:31:31;;;;;;;31.50;9.00;;;23.60;65.10;;;;;;4987914;28;20019;-57
2023/07/21 04:33:57;;;;;;;26.02;9.35;;;23.60;65.20;;;;;;4970082;28;20481;-57
2023/07/21 04:36:23;;;;;;;30.83;9.35;;;23.60;65.30;;;;;;4986533;28;20022;-57
2023/07/21 04:38:48;;;;;;;30.48;8.75;;;23.60;65.40;;;;;;4988347;28;20462;-57
2023/07/21 04:41:14;;;;;;;27.10;8.70;;;23.50;65.40;;;;;;4986633;28;20027;-55
2023/07/21 04:43:40;;;;;;;19.05;7.35;;;23.50;66.20;;;;;;4984658;28;20064;-57
2023/07/21 04:46:05;;;;;;;28.15;9.05;;;23.50;65.70;;;;;;4980860;28;20027;-57
2023/07/21 04:48:31;;;;;;;26.38;7.97;;;23.50;65.70;;;;;;4983893;28;20091;-57
2023/07/21 04:50:57;;;;;;;22.30;8.52;;;23.50;66.10;;;;;;4987131;28;20022;-57
2023/07/21 04:53:23;;;;;;;17.88;8.02;;;23.50;66.00;;;;;;4986026;28;20050;-57
2023/07/21 04:55:49;;;;;;;25.45;7.78;;;23.50;65.90;;;;;;4985915;28;20050;-57
2023/07/21 04:58:14;;;;;;;21.10;7.35;;;23.50;65.80;;;;;;4985940;28;20046;-57
2023/07/21 05:00:40;;;;;;;21.17;7.53;;;23.50;65.90;;;;;;4985000;28;20023;-57
2023/07/21 05:03:05;;;;;;;18.65;6.03;;;23.50;65.90;;;;;;4987447;28;20023;-57
2023/07/21 05:05:32;;;;;;;15.90;6.88;;;23.50;65.90;;;;;;4987233;28;20035;-58
2023/07/21 05:07:59;;;;;;;17.77;6.45;;;23.40;65.90;;;;;;4985989;28;20110;-57
2023/07/21 05:10:25;;;;;;;20.98;6.25;;;23.40;65.90;;;;;;4986147;28;20054;-57
2023/07/21 05:12:51;;;;;;;16.40;6.28;;;23.40;65.90;;;;;;4985706;28;20090;-57
2023/07/21 05:15:16;;;;;;;16.63;6.32;;;23.40;65.90;;;;;;4979323;28;20027;-57
2023/07/21 05:17:42;;;;;;;15.15;5.22;;;23.40;65.90;;;;;;4966477;28;20483;-57
2023/07/21 05:20:08;;;;;;;13.25;5.65;;;23.40;65.90;;;;;;4983751;28;20482;-57
2023/07/21 05:22:34;;;;;;;15.35;5.55;;;23.40;65.90;;;;;;4969572;28;20031;-57
2023/07/21 05:24:59;;;;;;;11.45;4.82;;;23.40;66.00;;;;;;4987023;28;20088;-57
2023/07/21 05:27:25;;;;;;;14.52;4.82;;;23.40;66.00;;;;;;4985762;28;20485;-57
2023/07/21 05:29:51;;;;;;;15.75;4.72;;;23.40;66.00;;;;;;4986931;28;20051;-57
2023/07/21 05:32:16;;;;;;;13.85;5.10;;;23.40;66.10;;;;;;4985414;28;20039;-57
2023/07/21 05:34:42;;;;;;;14.77;4.72;;;23.40;66.20;;;;;;4987349;28;20033;-57
2023/07/21 05:37:12;;;;;;;16.90;4.97;;;23.30;66.30;;;;;;4985104;28;20019;-57
2023/07/21 05:39:39;;;;;;;15.18;4.80;;;23.30;66.20;;;;;;4985620;28;20027;-57
2023/07/21 05:42:05;;;;;;;13.23;4.10;;;23.30;66.20;;;;;;4985486;28;20042;-57
2023/07/21 05:44:33;;;;;;;12.50;4.18;;;23.30;66.30;;;;;;4986715;28;20035;-57
2023/07/21 05:46:59;;;;;;;10.73;3.42;;;23.20;66.60;;;;;;4983843;28;20023;-57
2023/07/21 05:49:24;;;;;;;10.38;3.92;;;23.20;67.20;;;;;;4984053;28;20085;-57
2023/07/21 05:51:50;;;;;;;13.40;4.00;;;23.20;67.20;;;;;;4986044;28;20061;-57
2023/07/21 05:54:15;;;;;;;11.07;3.75;;;23.20;67.20;;;;;;4986591;28;20031;-57
2023/07/21 05:56:41;;;;;;;12.68;3.47;;;23.20;67.20;;;;;;4968963;28;20070;-58
2023/07/21 05:59:07;;;;;;;7.93;3.22;;;23.20;67.10;;;;;;4984180;28;20051;-56
2023/07/21 06:01:38;;;;;;;14.48;3.50;;;23.20;67.10;;;;;;4985568;28;20023;-57
2023/07/21 06:04:05;;;;;;;8.43;3.47;;;23.20;67.50;;;;;;4984294;28;20050;-57
2023/07/21 06:06:31;;;;;;;9.55;3.17;;;23.20;67.30;;;;;;4986939;28;20046;-57
2023/07/21 06:08:56;;;;;;;9.50;3.40;;;23.20;67.30;;;;;;4985630;28;20039;-57
2023/07/21 06:11:25;;;;;;;9.68;2.88;;;23.20;67.40;;;;;;4987370;28;20031;-57
2023/07/21 06:13:50;;;;;;;8.63;2.90;;;23.20;67.50;;;;;;4989687;28;20035;-57
2023/07/21 06:16:16;;;;;;;7.65;2.50;;;23.20;67.40;;;;;;4988984;28;20038;-57
2023/07/21 06:18:42;;;;;;;7.47;2.92;;;23.20;67.40;;;;;;4990804;28;20061;-57
2023/07/21 06:21:11;;;;;;;8.40;3.60;;;23.20;67.60;;;;;;4990546;28;20047;-57
2023/07/21 06:23:37;;;;;;;12.68;3.45;;;23.20;67.40;;;;;;4989110;28;20026;-57
2023/07/21 06:26:03;;;;;;;10.65;3.20;;;23.20;67.40;;;;;;4988969;28;20031;-56
2023/07/21 06:28:29;;;;;;;10.02;3.03;;;23.30;67.50;;;;;;4989101;28;20501;-57
2023/07/21 06:30:54;;;;;;;8.88;3.00;;;23.20;67.40;;;;;;4990188;28;20077;-56
2023/07/21 06:33:20;;;;;;;13.38;3.60;;;23.30;67.50;;;;;;4989017;28;20039;-57
2023/07/21 06:35:46;;;;;;;13.88;3.40;;;23.20;67.40;;;;;;4988899;28;20027;-57
2023/07/21 06:38:11;;;;;;;11.57;3.05;;;23.30;67.50;;;;;;4988809;28;20042;-57
2023/07/21 06:40:37;;;;;;;10.77;3.35;;;23.30;67.50;;;;;;4988657;28;20019;-57
2023/07/21 06:43:02;;;;;;;11.20;3.35;;;23.20;67.60;;;;;;4988823;28;20051;-57
2023/07/21 06:45:28;;;;;;;18.95;3.90;;;23.30;67.60;;;;;;4990139;28;20383;-57
2023/07/21 06:47:53;;;;;;;23.35;4.10;;;23.20;67.70;;;;;;4988876;28;20034;-58
2023/07/21 06:50:19;;;;;;;28.35;4.47;;;23.30;67.70;;;;;;4990580;28;20038;-57
2023/07/21 06:52:46;;;;;;;30.30;5.43;;;23.30;67.80;;;;;;4988284;28;20090;-57
2023/07/21 06:55:11;;;;;;;36.05;5.35;;;23.30;68.00;;;;;;4972435;28;20442;-57
2023/07/21 06:57:37;;;;;;;32.17;4.70;;;23.30;68.10;;;;;;4988709;28;20113;-52
2023/07/21 07:00:05;;;;;;;24.45;4.45;;;23.30;68.30;;;;;;4988824;28;20025;-52
2023/07/21 07:02:31;;;;;;;46.08;7.50;;;23.30;68.30;;;;;;4989691;28;20041;-52
2023/07/21 07:04:56;;;;;;;61.17;9.23;;;23.30;68.40;;;;;;4988343;28;20031;-52
2023/07/21 07:07:22;;;;;;;68.53;9.75;;;23.30;68.50;;;;;;4988504;28;20154;-52
2023/07/21 07:09:47;;;;;;;62.78;8.70;;;23.30;68.20;;;;;;4989779;28;20041;-52
2023/07/21 07:12:13;;;;;;;58.38;8.38;;;23.30;68.10;;;;;;4988417;28;20090;-52
2023/07/21 07:14:38;;;;;;;54.72;7.45;;;23.40;68.20;;;;;;4988555;28;20030;-52
2023/07/21 07:17:04;;;;;;;46.08;7.25;;;23.40;68.40;;;;;;4988178;28;20029;-52
2023/07/21 07:19:29;;;;;;;41.22;7.57;;;23.40;68.60;;;;;;4988858;28;20042;-52
2023/07/21 07:21:55;;;;;;;48.13;7.80;;;23.40;68.80;;;;;;5004336;28;20019;-51
2023/07/21 07:24:21;;;;;;;44.80;7.07;;;23.40;69.10;;;;;;4988673;28;20026;-52
2023/07/21 07:26:47;;;;;;;44.78;7.20;;;23.40;69.00;;;;;;5000083;28;20050;-51
2023/07/21 07:29:12;;;;;;;56.72;7.70;;;23.50;69.10;;;;;;5004191;28;20045;-52
2023/07/21 07:31:38;;;;;;;48.95;6.72;;;23.50;68.80;;;;;;5004087;28;20030;-52
2023/07/21 07:34:04;;;;;;;56.90;8.05;;;23.50;69.30;;;;;;4989099;28;20101;-55
2023/07/21 07:36:29;;;;;;;52.75;8.00;;;23.50;69.10;;;;;;4986786;28;20031;-54
2023/07/21 07:38:55;;;;;;;77.40;10.35;;;23.50;69.10;;;;;;4986044;28;20054;-51
2023/07/21 07:41:21;;;;;;;43.17;7.55;;;23.50;68.90;;;;;;4987269;28;20038;-52
2023/07/21 07:43:46;;;;;;;39.45;7.43;;;23.50;68.80;;;;;;5004081;28;20439;-54
2023/07/21 07:46:12;;;;;;;43.60;8.32;;;23.60;69.20;;;;;;4986706;28;20030;-52
2023/07/21 07:48:37;;;;;;;62.22;9.07;;;23.60;69.50;;;;;;5003106;28;20091;-51
2023/07/21 07:51:07;;;;;;;50.15;8.35;;;23.60;69.30;;;;;;4988996;28;20035;-52
2023/07/21 07:53:33;;;;;;;52.80;8.85;;;23.60;69.40;;;;;;5003933;28;20043;-52
2023/07/21 07:55:58;;;;;;;48.25;7.95;;;23.60;69.40;;;;;;4987850;28;20031;-57
2023/07/21 07:58:24;;;;;;;39.33;7.38;;;23.60;69.20;;;;;;4986406;28;20552;-57
2023/07/21 08:00:54;;;;;;;34.95;7.28;;;23.70;69.40;;;;;;4987603;28;20034;-57
2023/07/21 08:03:20;;;;;;;43.45;7.80;;;23.70;69.30;;;;;;4978733;28;20039;-57
2023/07/21 08:05:47;;;;;;;37.22;6.72;;;23.70;69.50;;;;;;4967966;29;20115;-57
2023/07/21 08:08:13;;;;;;;48.42;7.75;;;23.70;69.20;;;;;;4978446;28;20031;-57
2023/07/21 08:10:39;;;;;;;71.22;10.82;;;23.80;69.60;;;;;;4969618;28;20062;-57
2023/07/21 08:13:05;;;;;;;68.35;10.15;;;23.80;70.00;;;;;;4986733;28;20169;-57
2023/07/21 08:15:30;;;;;;;67.93;10.40;;;23.80;70.00;;;;;;4985907;28;20035;-57
2023/07/21 08:17:56;;;;;;;82.85;12.23;;;23.80;70.00;;;;;;4985140;28;20035;-57
2023/07/21 08:20:22;;;;;;;68.18;10.13;;;23.90;69.90;;;;;;5002683;28;20054;-57
2023/07/21 08:22:48;;;;;;;73.32;10.18;;;23.90;70.30;;;;;;5003114;28;20042;-57
2023/07/21 08:25:15;;;;;;;59.55;9.43;;;23.90;69.90;;;;;;4988132;28;20027;-57
2023/07/21 08:27:40;;;;;;;91.03;11.13;;;23.90;69.90;;;;;;4986407;28;20030;-57
2023/07/21 08:30:09;;;;;;;62.67;9.25;;;24.00;70.60;;;;;;4985207;28;20033;-57
2023/07/21 08:32:36;;;;;;;82.82;10.75;;;24.00;70.80;;;;;;4986691;28;20104;-57
2023/07/21 08:35:02;;;;;;;73.28;10.68;;;24.00;70.20;;;;;;4986765;28;20039;-57
2023/07/21 08:37:27;;;;;;;102.68;13.73;;;24.00;69.90;;;;;;4985002;28;20094;-56
2023/07/21 08:39:53;;;;;;;74.25;11.52;;;24.00;69.80;;;;;;4984713;28;20019;-57
2023/07/21 08:42:19;;;;;;;75.20;11.55;;;24.10;70.50;;;;;;4979851;28;20074;-52
2023/07/21 08:44:44;;;;;;;75.07;11.27;;;24.10;69.80;;;;;;4977615;28;20039;-52
2023/07/21 08:47:10;;;;;;;96.13;11.27;;;24.10;71.00;;;;;;4984137;28;20019;-52
2023/07/21 08:49:38;;;;;;;89.97;13.45;;;24.10;70.20;;;;;;4968240;28;20030;-52
2023/07/21 08:52:04;;;;;;;89.28;12.57;;;24.20;70.10;;;;;;4982566;28;20031;-52
2023/07/21 08:54:29;;;;;;;122.82;15.82;;;24.20;70.40;;;;;;4984584;28;20197;-52
2023/07/21 08:56:55;;;;;;;97.28;12.45;;;24.20;70.20;;;;;;4969146;28;20090;-51
2023/07/21 08:59:21;;;;;;;102.53;12.82;;;24.20;70.00;;;;;;4985339;28;20035;-52
2023/07/21 09:01:47;;;;;;;110.43;13.75;;;24.20;69.90;;;;;;4985264;28;20041;-52
2023/07/21 09:04:18;;;;;;;161.73;20.50;;;24.20;70.00;;;;;;4984537;28;20050;-52
2023/07/21 09:06:51;;;;;;;113.65;16.35;;;24.30;70.50;;;;;;4985291;28;20498;-52
2023/07/21 09:09:18;;;;;;;138.57;18.15;;;24.30;71.20;;;;;;4986030;28;20047;-52
2023/07/21 09:11:44;;;;;;;135.63;18.02;;;24.40;71.50;;;;;;4986344;28;20031;-52
2023/07/21 09:14:09;;;;;;;141.32;18.23;;;24.40;72.10;;;;;;4986105;28;20041;-52
2023/07/21 09:16:36;;;;;;;118.75;17.52;;;24.30;72.20;;;;;;4968526;28;20045;-51
2023/07/21 09:19:05;;;;;;;141.95;17.88;;;24.30;72.30;;;;;;4969822;28;20039;-52
2023/07/21 09:21:30;;;;;;;130.77;19.08;;;24.40;72.50;;;;;;4969249;28;20388;-52
2023/07/21 09:24:06;;;;;;;160.00;20.55;;;24.40;72.80;;;;;;4974790;28;20042;-52
2023/07/21 09:26:31;;;;;;;127.65;19.63;;;24.40;73.20;;;;;;4966492;29;20055;-52
2023/07/21 09:28:57;;;;;;;160.00;17.42;;;24.40;73.30;;;;;;4984221;28;20046;-52
2023/07/21 09:31:31;;;;;;;156.23;20.00;;;24.40;73.40;;;;;;4985423;28;20390;-52
2023/07/21 09:34:05;;;;;;;113.43;17.15;;;24.40;73.90;;;;;;4984568;28;20035;-53
2023/07/21 09:36:30;;;;;;;103.78;16.38;;;24.40;73.80;;;;;;4968769;28;20395;-53
2023/07/21 09:38:56;;;;;;;118.60;17.75;;;24.40;73.40;;;;;;4967772;28;20038;-53
2023/07/21 09:41:24;;;;;;;125.97;17.40;;;24.40;73.30;;;;;;4989056;28;20507;-53
2023/07/21 09:43:50;;;;;;;131.00;19.58;;;24.40;73.20;;;;;;4984352;28;20026;-53
2023/07/21 09:46:15;;;;;;;115.75;18.67;;;24.50;74.20;;;;;;4986518;28;20027;-53
2023/07/21 09:48:41;;;;;;;149.18;19.65;;;24.50;75.50;;;;;;4975283;28;20038;-53
2023/07/21 09:51:07;;;;;;;144.00;19.42;;;24.50;75.80;;;;;;4993427;28;20023;-53
2023/07/21 09:53:37;;;;;;;114.65;16.73;;;24.50;75.90;;;;;;4990385;28;20058;-53
2023/07/21 09:56:03;;;;;;;119.57;15.75;;;24.50;76.00;;;;;;4992390;28;20025;-53
2023/07/21 09:58:29;;;;;;;106.38;15.90;;;24.50;75.10;;;;;;4975770;28;20482;-53
2023/07/21 10:00:55;;;;;;;118.70;17.20;;;24.50;74.40;;;;;;4991073;28;20041;-53
2023/07/21 10:03:22;;;;;;;96.13;13.45;;;24.50;74.70;;;;;;4988081;28;20430;-53
2023/07/21 10:05:48;;;;;;;108.88;12.85;;;24.50;75.00;;;;;;4993293;28;20034;-53
2023/07/21 10:08:15;;;;;;;110.32;14.27;;;24.50;75.30;;;;;;4991032;28;20027;-53
2023/07/21 10:10:41;;;;;;;106.00;14.38;;;24.50;75.70;;;;;;4990790;28;20039;-53
2023/07/21 10:13:07;;;;;;;77.07;12.48;;;24.50;75.90;;;;;;4991167;28;20035;-53
2023/07/21 10:15:33;;;;;;;77.18;13.07;;;24.50;76.10;;;;;;4993252;28;20027;-53
2023/07/21 10:18:00;;;;;;;72.93;12.88;;;24.50;76.40;;;;;;4975069;28;20035;-53
2023/07/21 10:20:42;;;;;;;93.85;15.00;;;24.50;76.20;;;;;;4991618;28;20047;-52
2023/07/21 10:23:07;;;;;;;83.22;13.05;;;24.40;76.30;;;;;;4976567;28;20038;-53
2023/07/21 10:25:47;;;;;;;72.32;12.93;;;24.40;76.50;;;;;;4991694;28;20038;-53
2023/07/21 10:28:13;;;;;;;73.53;10.65;;;24.40;76.80;;;;;;4990608;28;20086;-53
2023/07/21 10:30:39;;;;;;;71.97;12.25;;;24.40;77.00;;;;;;4990215;28;20138;-53
2023/07/21 10:33:16;;;;;;;86.80;12.15;;;24.40;76.90;;;;;;4989745;28;20034;-53
2023/07/21 10:35:41;;;;;;;76.72;10.90;;;24.50;77.20;;;;;;4990612;28;20030;-53
2023/07/21 10:38:13;;;;;;;99.53;12.18;;;24.50;77.40;;;;;;4990824;28;20549;-53
2023/07/21 10:40:42;;;;;;;96.10;12.10;;;24.50;77.00;;;;;;4991739;28;20105;-53
2023/07/21 10:43:07;;;;;;;80.72;12.27;;;24.50;77.30;;;;;;4990158;28;20034;-53
2023/07/21 10:45:33;;;;;;;76.82;11.40;;;24.60;77.70;;;;;;4971967;28;20026;-53
2023/07/21 10:48:12;;;;;;;66.32;10.90;;;24.60;78.00;;;;;;4990251;28;20095;-53
2023/07/21 10:50:58;;;;;;;89.10;11.40;;;24.60;78.50;;;;;;4975906;28;20057;-53
2023/07/21 10:53:24;;;;;;;74.53;12.00;;;24.60;78.30;;;;;;4991684;28;20074;-53
2023/07/21 10:55:51;;;;;;;66.97;10.65;;;24.60;79.20;;;;;;4991569;28;20039;-53
2023/07/21 10:58:17;;;;;;;55.72;10.02;;;24.60;79.10;;;;;;4988323;28;20444;-53
2023/07/21 11:00:47;;;;;;;73.15;11.30;;;24.60;78.60;;;;;;4986557;28;20033;-53
2023/07/21 11:03:13;;;;;;;69.20;11.10;;;24.70;78.80;;;;;;4988099;28;20087;-53
2023/07/21 11:05:39;;;;;;;97.00;12.52;;;24.70;78.70;;;;;;4987646;28;20041;-53
2023/07/21 11:08:04;;;;;;;82.43;12.35;;;24.80;79.70;;;;;;4986964;28;20117;-53
2023/07/21 11:10:33;;;;;;;109.63;14.40;;;24.80;79.20;;;;;;4987781;28;20041;-53
2023/07/21 11:12:59;;;;;;;69.35;11.32;;;24.80;79.80;;;;;;4989042;28;20034;-53
2023/07/21 11:15:25;;;;;;;94.13;12.07;;;24.90;79.80;;;;;;4968903;28;20054;-53
2023/07/21 11:18:00;;;;;;;70.32;11.70;;;24.90;79.60;;;;;;4971053;28;20302;-53
2023/07/21 11:20:25;;;;;;;72.30;10.32;;;24.80;78.90;;;;;;4986885;28;20049;-53
2023/07/21 11:22:51;;;;;;;87.95;11.48;;;24.90;79.00;;;;;;4987566;28;20031;-53
2023/07/21 11:25:16;;;;;;;101.75;10.77;;;24.90;78.90;;;;;;4987857;28;20035;-53
2023/07/21 11:27:43;;;;;;;70.88;10.50;;;24.90;79.20;;;;;;4986347;28;20042;-53
2023/07/21 11:30:09;;;;;;;58.85;9.45;;;25.00;78.60;;;;;;4987540;28;20046;-53
2023/07/21 11:32:37;;;;;;;66.68;9.85;;;25.00;78.10;;;;;;4984342;28;20031;-53
2023/07/21 11:35:03;;;;;;;50.83;10.07;;;25.10;77.60;;;;;;4985770;28;20086;-54
2023/07/21 11:37:36;;;;;;;70.05;8.00;;;25.10;77.40;;;;;;4969899;28;20027;-53
2023/07/21 11:40:08;;;;;;;65.38;8.57;;;25.20;77.00;;;;;;4987927;28;20034;-53
2023/07/21 11:42:54;;;;;;;54.33;8.40;;;25.30;76.80;;;;;;4986985;28;20123;-53
2023/07/21 11:45:35;;;;;;;65.78;8.38;;;25.30;76.40;;;;;;4988109;28;20042;-53
2023/07/21 11:48:03;;;;;;;58.95;8.02;;;25.40;76.10;;;;;;4984541;28;20042;-53
2023/07/21 11:50:29;;;;;;;43.00;7.70;;;25.50;75.90;;;;;;4986733;28;20031;-53
2023/07/21 11:52:54;;;;;;;41.88;6.70;;;25.50;75.50;;;;;;4985772;28;20046;-53
2023/07/21 11:55:20;;;;;;;58.88;8.13;;;25.60;75.00;;;;;;4982849;28;20066;-53
2023/07/21 11:57:45;;;;;;;41.40;7.80;;;25.60;74.70;;;;;;4970551;28;20058;-53
2023/07/21 12:00:12;;;;;;;50.13;7.95;;;25.70;74.60;;;;;;4988890;28;20043;-53
2023/07/21 12:02:37;;;;;;;67.50;8.55;;;25.70;74.20;;;;;;4988520;28;20038;-53
2023/07/21 12:05:04;;;;;;;51.80;7.93;;;25.80;74.10;;;;;;4985088;28;20113;-53
2023/07/21 12:07:30;;;;;;;47.70;7.40;;;25.80;73.80;;;;;;4986544;28;20062;-53
2023/07/21 12:09:55;;;;;;;52.72;7.38;;;25.90;73.40;;;;;;4986533;28;20091;-54
2023/07/21 12:12:21;;;;;;;34.83;6.45;;;26.00;73.40;;;;;;4987777;28;20038;-53
2023/07/21 12:14:46;;;;;;;47.20;7.57;;;26.00;73.20;;;;;;4985295;28;20026;-53
2023/07/21 12:17:15;;;;;;;53.30;7.28;;;26.00;73.20;;;;;;4988045;28;20116;-53
2023/07/21 12:19:40;;;;;;;39.72;6.75;;;26.00;73.90;;;;;;4986792;28;20382;-53
2023/07/21 12:22:07;;;;;;;53.83;7.97;;;26.00;73.30;;;;;;4987244;28;20050;-53
2023/07/21 12:24:33;;;;;;;59.55;7.95;;;26.00;73.10;;;;;;4984843;28;20087;-53
2023/07/21 12:26:58;;;;;;;50.28;8.38;;;26.00;73.00;;;;;;4970390;28;20042;-53
2023/07/21 12:29:24;;;;;;;70.20;10.07;;;26.10;73.00;;;;;;4986711;28;20031;-53
2023/07/21 12:31:49;;;;;;;77.88;10.02;;;26.20;72.90;;;;;;4969696;28;20061;-53